sensor_id;sensor_type;location;lat;lon;timestamp;temperature;humidity
11122;DHT22;5615;49.304;10.576;2024-02-28T00:00:53;5.10;99.90
11122;DHT22;5615;49.304;10.576;2024-02-28T00:03:22;5.10;99.90
11122;DHT22;5615;49.304;10.576;2024-02-28T00:05:49;5.10;99.90
11122;DHT22;5615;49.304;10.576;2024-02-28T00:08:16;5.10;99.90
11122;DHT22;5615;49.304;10.576;2024-02-28T00:10:44;5.10;99.90
11122;DHT22;5615;49.304;10.576;2024-02-28T00:13:11;5.00;99.90
11122;DHT22;5615;49.304;10.576;2024-02-28T00:15:38;5.00;99.90
11122;DHT22;5615;49.304;10.576;2024-02-28T00:18:05;4.90;99.90
11122;DHT22;5615;49.304;10.576;2024-02-28T00:20:33;4.90;99.90
11122;DHT22;5615;49.304;10.576;2024-02-28T00:23:00;4.90;99.90
11122;DHT22;5615;49.304;10.576;2024-02-28T00:25:27;4.90;99.90
11122;DHT22;5615;49.304;10.576;2024-02-28T00:27:53;4.90;99.90
11122;DHT22;5615;49.304;10.576;2024-02-28T00:30:20;4.80;99.90
11122;DHT22;5615;49.304;10.576;2024-02-28T00:32:47;4.90;99.90
11122;DHT22;5615;49.304;10.576;2024-02-28T00:35:14;4.80;99.90
11122;DHT22;5615;49.304;10.576;2024-02-28T00:37:42;4.80;99.90
11122;DHT22;5615;49.304;10.576;2024-02-28T00:40:09;4.80;99.90
11122;DHT22;5615;49.304;10.576;2024-02-28T00:42:36;4.80;99.90
11122;DHT22;5615;49.304;10.576;2024-02-28T00:45:03;4.80;99.90
11122;DHT22;5615;49.304;10.576;2024-02-28T00:47:30;4.80;99.90
11122;DHT22;5615;49.304;10.576;2024-02-28T00:49:57;4.80;99.90
11122;DHT22;5615;49.304;10.576;2024-02-28T00:52:24;4.80;99.90
11122;DHT22;5615;49.304;10.576;2024-02-28T00:54:52;4.80;99.90
11122;DHT22;5615;49.304;10.576;2024-02-28T00:57:19;4.70;99.90
11122;DHT22;5615;49.304;10.576;2024-02-28T00:59:45;4.70;99.90
11122;DHT22;5615;49.304;10.576;2024-02-28T01:02:12;4.70;99.90
11122;DHT22;5615;49.304;10.576;2024-02-28T01:04:39;4.70;99.90
11122;DHT22;5615;49.304;10.576;2024-02-28T01:07:06;4.80;99.90
11122;DHT22;5615;49.304;10.576;2024-02-28T01:09:33;4.70;99.90
11122;DHT22;5615;49.304;10.576;2024-02-28T01:12:01;4.70;99.90
11122;DHT22;5615;49.304;10.576;2024-02-28T01:14:27;4.70;99.90
11122;DHT22;5615;49.304;10.576;2024-02-28T01:16:54;4.70;99.90
11122;DHT22;5615;49.304;10.576;2024-02-28T01:19:20;4.70;99.90
11122;DHT22;5615;49.304;10.576;2024-02-28T01:21:47;4.70;99.90
11122;DHT22;5615;49.304;10.576;2024-02-28T01:24:14;4.70;99.90
11122;DHT22;5615;49.304;10.576;2024-02-28T01:26:41;4.60;99.90
11122;DHT22;5615;49.304;10.576;2024-02-28T01:29:09;4.60;99.90
11122;DHT22;5615;49.304;10.576;2024-02-28T01:31:35;4.60;99.90
11122;DHT22;5615;49.304;10.576;2024-02-28T01:34:02;4.60;99.90
11122;DHT22;5615;49.304;10.576;2024-02-28T01:36:31;4.60;99.90
11122;DHT22;5615;49.304;10.576;2024-02-28T01:38:57;4.60;99.90
11122;DHT22;5615;49.304;10.576;2024-02-28T01:41:24;4.60;99.90
11122;DHT22;5615;49.304;10.576;2024-02-28T01:43:51;4.60;99.90
11122;DHT22;5615;49.304;10.576;2024-02-28T01:46:26;4.60;99.90
11122;DHT22;5615;49.304;10.576;2024-02-28T01:48:55;4.50;99.90
11122;DHT22;5615;49.304;10.576;2024-02-28T01:51:23;4.50;99.90
11122;DHT22;5615;49.304;10.576;2024-02-28T01:53:51;4.50;99.90
11122;DHT22;5615;49.304;10.576;2024-02-28T01:56:19;4.40;99.90
11122;DHT22;5615;49.304;10.576;2024-02-28T01:58:47;4.40;99.90
11122;DHT22;5615;49.304;10.576;2024-02-28T02:01:15;4.40;99.90
11122;DHT22;5615;49.304;10.576;2024-02-28T02:03:44;4.40;99.90
11122;DHT22;5615;49.304;10.576;2024-02-28T02:06:11;4.40;99.90
11122;DHT22;5615;49.304;10.576;2024-02-28T02:08:38;4.40;99.90
11122;DHT22;5615;49.304;10.576;2024-02-28T02:11:07;4.30;99.90
11122;DHT22;5615;49.304;10.576;2024-02-28T02:13:34;4.40;99.90
11122;DHT22;5615;49.304;10.576;2024-02-28T02:16:01;4.40;99.90
11122;DHT22;5615;49.304;10.576;2024-02-28T02:18:28;4.40;99.90
11122;DHT22;5615;49.304;10.576;2024-02-28T02:21:01;4.40;99.90
11122;DHT22;5615;49.304;10.576;2024-02-28T02:23:30;4.40;99.90
11122;DHT22;5615;49.304;10.576;2024-02-28T02:25:57;4.40;99.90
11122;DHT22;5615;49.304;10.576;2024-02-28T02:28:23;4.40;99.90
11122;DHT22;5615;49.304;10.576;2024-02-28T02:30:50;4.40;99.90
11122;DHT22;5615;49.304;10.576;2024-02-28T02:33:17;4.40;99.90
11122;DHT22;5615;49.304;10.576;2024-02-28T02:35:43;4.40;99.90
11122;DHT22;5615;49.304;10.576;2024-02-28T02:38:10;4.40;99.90
11122;DHT22;5615;49.304;10.576;2024-02-28T02:40:40;4.30;99.90
11122;DHT22;5615;49.304;10.576;2024-02-28T02:43:07;4.30;99.90
11122;DHT22;5615;49.304;10.576;2024-02-28T02:45:34;4.30;99.90
11122;DHT22;5615;49.304;10.576;2024-02-28T02:48:03;4.30;99.90
11122;DHT22;5615;49.304;10.576;2024-02-28T02:50:30;4.30;99.90
11122;DHT22;5615;49.304;10.576;2024-02-28T02:52:57;4.30;99.90
11122;DHT22;5615;49.304;10.576;2024-02-28T02:55:26;4.30;99.90
11122;DHT22;5615;49.304;10.576;2024-02-28T02:57:54;4.30;99.90
11122;DHT22;5615;49.304;10.576;2024-02-28T03:00:21;4.30;99.90
11122;DHT22;5615;49.304;10.576;2024-02-28T03:02:48;4.30;99.90
11122;DHT22;5615;49.304;10.576;2024-02-28T03:05:15;4.30;99.90
11122;DHT22;5615;49.304;10.576;2024-02-28T03:07:42;4.30;99.90
11122;DHT22;5615;49.304;10.576;2024-02-28T03:10:09;4.30;99.90
11122;DHT22;5615;49.304;10.576;2024-02-28T03:12:36;4.20;99.90
11122;DHT22;5615;49.304;10.576;2024-02-28T03:15:05;4.20;99.90
11122;DHT22;5615;49.304;10.576;2024-02-28T03:17:34;4.20;99.90
11122;DHT22;5615;49.304;10.576;2024-02-28T03:20:01;4.20;99.90
11122;DHT22;5615;49.304;10.576;2024-02-28T03:22:28;4.20;99.90
11122;DHT22;5615;49.304;10.576;2024-02-28T03:24:55;4.20;99.90
11122;DHT22;5615;49.304;10.576;2024-02-28T03:27:29;4.20;99.90
11122;DHT22;5615;49.304;10.576;2024-02-28T03:29:55;4.10;99.90
11122;DHT22;5615;49.304;10.576;2024-02-28T03:32:24;4.10;99.90
11122;DHT22;5615;49.304;10.576;2024-02-28T03:34:50;4.10;99.90
11122;DHT22;5615;49.304;10.576;2024-02-28T03:37:17;4.20;99.90
11122;DHT22;5615;49.304;10.576;2024-02-28T03:39:43;4.20;99.90
11122;DHT22;5615;49.304;10.576;2024-02-28T03:42:10;4.20;99.90
11122;DHT22;5615;49.304;10.576;2024-02-28T03:44:37;4.20;99.90
11122;DHT22;5615;49.304;10.576;2024-02-28T03:47:04;4.30;99.90
11122;DHT22;5615;49.304;10.576;2024-02-28T03:49:32;4.20;99.90
11122;DHT22;5615;49.304;10.576;2024-02-28T03:51:58;4.30;99.90
11122;DHT22;5615;49.304;10.576;2024-02-28T03:54:26;4.20;99.90
11122;DHT22;5615;49.304;10.576;2024-02-28T03:56:53;4.20;99.90
11122;DHT22;5615;49.304;10.576;2024-02-28T03:59:20;4.20;99.90
11122;DHT22;5615;49.304;10.576;2024-02-28T04:01:48;4.20;99.90
11122;DHT22;5615;49.304;10.576;2024-02-28T04:04:15;4.20;99.90
11122;DHT22;5615;49.304;10.576;2024-02-28T04:06:43;4.30;99.90
11122;DHT22;5615;49.304;10.576;2024-02-28T04:09:10;4.30;99.90
11122;DHT22;5615;49.304;10.576;2024-02-28T04:11:37;4.30;99.90
11122;DHT22;5615;49.304;10.576;2024-02-28T04:14:04;4.20;99.90
11122;DHT22;5615;49.304;10.576;2024-02-28T04:16:31;4.30;99.90
11122;DHT22;5615;49.304;10.576;2024-02-28T04:18:57;4.30;99.90
11122;DHT22;5615;49.304;10.576;2024-02-28T04:21:24;4.20;99.90
11122;DHT22;5615;49.304;10.576;2024-02-28T04:23:52;4.20;99.90
11122;DHT22;5615;49.304;10.576;2024-02-28T04:26:19;4.20;99.90
11122;DHT22;5615;49.304;10.576;2024-02-28T04:28:46;4.20;99.90
11122;DHT22;5615;49.304;10.576;2024-02-28T04:31:13;4.20;99.90
11122;DHT22;5615;49.304;10.576;2024-02-28T04:33:39;4.20;99.90
11122;DHT22;5615;49.304;10.576;2024-02-28T04:36:06;4.10;99.90
11122;DHT22;5615;49.304;10.576;2024-02-28T04:38:33;4.10;99.90
11122;DHT22;5615;49.304;10.576;2024-02-28T04:41:02;4.10;99.90
11122;DHT22;5615;49.304;10.576;2024-02-28T04:43:29;4.10;99.90
11122;DHT22;5615;49.304;10.576;2024-02-28T04:45:56;4.00;99.90
11122;DHT22;5615;49.304;10.576;2024-02-28T04:48:23;4.00;99.90
11122;DHT22;5615;49.304;10.576;2024-02-28T04:50:49;4.00;99.90
11122;DHT22;5615;49.304;10.576;2024-02-28T04:53:16;4.00;99.90
11122;DHT22;5615;49.304;10.576;2024-02-28T04:55:43;4.00;99.90
11122;DHT22;5615;49.304;10.576;2024-02-28T04:58:11;4.00;99.90
11122;DHT22;5615;49.304;10.576;2024-02-28T05:00:38;4.00;99.90
11122;DHT22;5615;49.304;10.576;2024-02-28T05:03:05;4.00;99.90
11122;DHT22;5615;49.304;10.576;2024-02-28T05:05:31;4.00;99.90
11122;DHT22;5615;49.304;10.576;2024-02-28T05:07:58;4.00;99.90
11122;DHT22;5615;49.304;10.576;2024-02-28T05:10:26;4.00;99.90
11122;DHT22;5615;49.304;10.576;2024-02-28T05:12:52;4.00;99.90
11122;DHT22;5615;49.304;10.576;2024-02-28T05:15:20;4.00;99.90
11122;DHT22;5615;49.304;10.576;2024-02-28T05:17:50;4.00;99.90
11122;DHT22;5615;49.304;10.576;2024-02-28T05:20:18;4.00;99.90
11122;DHT22;5615;49.304;10.576;2024-02-28T05:22:46;4.00;99.90
11122;DHT22;5615;49.304;10.576;2024-02-28T05:25:13;4.00;99.90
11122;DHT22;5615;49.304;10.576;2024-02-28T05:27:40;4.00;99.90
11122;DHT22;5615;49.304;10.576;2024-02-28T05:30:08;4.00;99.90
11122;DHT22;5615;49.304;10.576;2024-02-28T05:32:36;4.00;99.90
11122;DHT22;5615;49.304;10.576;2024-02-28T05:35:03;4.00;99.90
11122;DHT22;5615;49.304;10.576;2024-02-28T05:37:30;4.10;99.90
11122;DHT22;5615;49.304;10.576;2024-02-28T05:39:57;4.00;99.90
11122;DHT22;5615;49.304;10.576;2024-02-28T05:42:24;4.00;99.90
11122;DHT22;5615;49.304;10.576;2024-02-28T05:44:51;4.00;99.90
11122;DHT22;5615;49.304;10.576;2024-02-28T05:47:18;4.00;99.90
11122;DHT22;5615;49.304;10.576;2024-02-28T05:49:47;4.00;99.90
11122;DHT22;5615;49.304;10.576;2024-02-28T05:52:14;4.00;99.90
11122;DHT22;5615;49.304;10.576;2024-02-28T05:54:41;4.10;99.90
11122;DHT22;5615;49.304;10.576;2024-02-28T05:57:08;4.00;99.90
11122;DHT22;5615;49.304;10.576;2024-02-28T05:59:35;4.00;99.90
11122;DHT22;5615;49.304;10.576;2024-02-28T06:02:01;4.00;99.90
11122;DHT22;5615;49.304;10.576;2024-02-28T06:04:28;4.00;99.90
11122;DHT22;5615;49.304;10.576;2024-02-28T06:06:56;4.00;99.90
11122;DHT22;5615;49.304;10.576;2024-02-28T06:09:23;4.00;99.90
11122;DHT22;5615;49.304;10.576;2024-02-28T06:11:49;4.00;99.90
11122;DHT22;5615;49.304;10.576;2024-02-28T06:14:16;4.00;99.90
11122;DHT22;5615;49.304;10.576;2024-02-28T06:16:43;4.00;99.90
11122;DHT22;5615;49.304;10.576;2024-02-28T06:19:12;4.00;99.90
11122;DHT22;5615;49.304;10.576;2024-02-28T06:21:39;4.00;99.90
11122;DHT22;5615;49.304;10.576;2024-02-28T06:24:07;4.00;99.90
11122;DHT22;5615;49.304;10.576;2024-02-28T06:26:34;4.10;99.90
11122;DHT22;5615;49.304;10.576;2024-02-28T06:29:01;4.10;99.90
11122;DHT22;5615;49.304;10.576;2024-02-28T06:31:29;4.10;99.90
11122;DHT22;5615;49.304;10.576;2024-02-28T06:33:56;4.10;99.90
11122;DHT22;5615;49.304;10.576;2024-02-28T06:36:23;4.10;99.90
11122;DHT22;5615;49.304;10.576;2024-02-28T06:38:50;4.10;99.90
11122;DHT22;5615;49.304;10.576;2024-02-28T06:41:18;4.10;99.90
11122;DHT22;5615;49.304;10.576;2024-02-28T06:43:44;4.10;99.90
11122;DHT22;5615;49.304;10.576;2024-02-28T06:46:14;4.10;99.90
11122;DHT22;5615;49.304;10.576;2024-02-28T06:48:41;4.10;99.90
11122;DHT22;5615;49.304;10.576;2024-02-28T06:51:07;4.10;99.90
11122;DHT22;5615;49.304;10.576;2024-02-28T06:53:34;4.10;99.90
11122;DHT22;5615;49.304;10.576;2024-02-28T06:56:02;4.10;99.90
11122;DHT22;5615;49.304;10.576;2024-02-28T06:58:31;4.10;99.90
11122;DHT22;5615;49.304;10.576;2024-02-28T07:00:58;4.10;99.90
11122;DHT22;5615;49.304;10.576;2024-02-28T07:03:26;4.10;99.90
11122;DHT22;5615;49.304;10.576;2024-02-28T07:05:52;4.20;99.90
11122;DHT22;5615;49.304;10.576;2024-02-28T07:08:20;4.20;99.90
11122;DHT22;5615;49.304;10.576;2024-02-28T07:10:47;4.20;99.90
11122;DHT22;5615;49.304;10.576;2024-02-28T07:13:18;4.30;99.90
11122;DHT22;5615;49.304;10.576;2024-02-28T07:15:47;4.30;99.90
11122;DHT22;5615;49.304;10.576;2024-02-28T07:18:14;4.40;99.90
11122;DHT22;5615;49.304;10.576;2024-02-28T07:20:41;4.40;99.90
11122;DHT22;5615;49.304;10.576;2024-02-28T07:23:08;4.30;99.90
11122;DHT22;5615;49.304;10.576;2024-02-28T07:25:34;4.30;99.90
11122;DHT22;5615;49.304;10.576;2024-02-28T07:28:01;4.40;99.90
11122;DHT22;5615;49.304;10.576;2024-02-28T07:30:29;4.40;99.90
11122;DHT22;5615;49.304;10.576;2024-02-28T07:32:57;4.40;99.90
11122;DHT22;5615;49.304;10.576;2024-02-28T07:35:24;4.50;99.90
11122;DHT22;5615;49.304;10.576;2024-02-28T07:37:50;4.50;99.90
11122;DHT22;5615;49.304;10.576;2024-02-28T07:40:17;4.70;99.90
11122;DHT22;5615;49.304;10.576;2024-02-28T07:42:44;4.70;99.90
11122;DHT22;5615;49.304;10.576;2024-02-28T07:45:11;4.60;99.90
11122;DHT22;5615;49.304;10.576;2024-02-28T07:47:38;4.70;99.90
11122;DHT22;5615;49.304;10.576;2024-02-28T07:50:07;4.60;99.90
11122;DHT22;5615;49.304;10.576;2024-02-28T07:52:34;4.70;99.90
11122;DHT22;5615;49.304;10.576;2024-02-28T07:55:03;4.70;99.90
11122;DHT22;5615;49.304;10.576;2024-02-28T07:57:31;4.70;99.90
11122;DHT22;5615;49.304;10.576;2024-02-28T07:59:58;4.60;99.90
11122;DHT22;5615;49.304;10.576;2024-02-28T08:02:25;4.60;99.90
11122;DHT22;5615;49.304;10.576;2024-02-28T08:04:52;4.60;99.90
11122;DHT22;5615;49.304;10.576;2024-02-28T08:07:20;4.60;99.90
11122;DHT22;5615;49.304;10.576;2024-02-28T08:09:46;4.60;99.90
11122;DHT22;5615;49.304;10.576;2024-02-28T08:12:13;4.60;99.90
11122;DHT22;5615;49.304;10.576;2024-02-28T08:14:42;4.70;99.90
11122;DHT22;5615;49.304;10.576;2024-02-28T08:17:08;4.80;99.90
11122;DHT22;5615;49.304;10.576;2024-02-28T08:19:35;4.90;99.90
11122;DHT22;5615;49.304;10.576;2024-02-28T08:22:02;4.80;99.90
11122;DHT22;5615;49.304;10.576;2024-02-28T08:24:30;4.80;99.90
11122;DHT22;5615;49.304;10.576;2024-02-28T08:27:00;4.90;99.90
11122;DHT22;5615;49.304;10.576;2024-02-28T08:29:27;4.90;99.90
11122;DHT22;5615;49.304;10.576;2024-02-28T08:31:54;4.90;99.90
11122;DHT22;5615;49.304;10.576;2024-02-28T08:34:20;5.00;99.90
11122;DHT22;5615;49.304;10.576;2024-02-28T08:36:47;5.00;99.90
11122;DHT22;5615;49.304;10.576;2024-02-28T08:39:14;5.20;99.90
11122;DHT22;5615;49.304;10.576;2024-02-28T08:41:42;5.30;99.90
11122;DHT22;5615;49.304;10.576;2024-02-28T08:44:08;5.30;99.90
11122;DHT22;5615;49.304;10.576;2024-02-28T08:46:36;5.20;99.90
11122;DHT22;5615;49.304;10.576;2024-02-28T08:49:03;5.10;99.90
11122;DHT22;5615;49.304;10.576;2024-02-28T08:51:29;5.00;99.90
11122;DHT22;5615;49.304;10.576;2024-02-28T08:53:56;4.90;99.90
11122;DHT22;5615;49.304;10.576;2024-02-28T08:56:25;4.80;99.90
11122;DHT22;5615;49.304;10.576;2024-02-28T08:58:54;4.80;99.90
11122;DHT22;5615;49.304;10.576;2024-02-28T09:01:20;4.80;99.90
11122;DHT22;5615;49.304;10.576;2024-02-28T09:03:48;4.80;99.90
11122;DHT22;5615;49.304;10.576;2024-02-28T09:06:15;5.00;99.90
11122;DHT22;5615;49.304;10.576;2024-02-28T09:08:42;5.10;99.90
11122;DHT22;5615;49.304;10.576;2024-02-28T09:11:08;5.10;99.90
11122;DHT22;5615;49.304;10.576;2024-02-28T09:13:35;4.90;99.90
11122;DHT22;5615;49.304;10.576;2024-02-28T09:16:04;4.90;99.90
11122;DHT22;5615;49.304;10.576;2024-02-28T09:18:31;4.90;99.90
11122;DHT22;5615;49.304;10.576;2024-02-28T09:20:58;5.00;99.90
11122;DHT22;5615;49.304;10.576;2024-02-28T09:23:26;5.00;99.90
11122;DHT22;5615;49.304;10.576;2024-02-28T09:25:53;5.10;99.90
11122;DHT22;5615;49.304;10.576;2024-02-28T09:28:21;5.20;99.90
11122;DHT22;5615;49.304;10.576;2024-02-28T09:30:50;5.20;99.90
11122;DHT22;5615;49.304;10.576;2024-02-28T09:33:20;5.30;99.90
11122;DHT22;5615;49.304;10.576;2024-02-28T09:35:47;5.30;99.90
11122;DHT22;5615;49.304;10.576;2024-02-28T09:38:14;5.30;99.90
11122;DHT22;5615;49.304;10.576;2024-02-28T09:40:41;5.40;99.90
11122;DHT22;5615;49.304;10.576;2024-02-28T09:43:18;5.60;99.90
11122;DHT22;5615;49.304;10.576;2024-02-28T09:45:46;5.50;99.90
11122;DHT22;5615;49.304;10.576;2024-02-28T09:48:12;5.50;99.90
11122;DHT22;5615;49.304;10.576;2024-02-28T09:50:43;5.60;99.90
11122;DHT22;5615;49.304;10.576;2024-02-28T09:53:12;5.50;99.90
11122;DHT22;5615;49.304;10.576;2024-02-28T09:55:39;5.60;99.90
11122;DHT22;5615;49.304;10.576;2024-02-28T09:58:08;5.70;99.90
11122;DHT22;5615;49.304;10.576;2024-02-28T10:00:35;5.80;99.90
11122;DHT22;5615;49.304;10.576;2024-02-28T10:03:04;5.70;99.90
11122;DHT22;5615;49.304;10.576;2024-02-28T10:05:33;5.80;99.90
11122;DHT22;5615;49.304;10.576;2024-02-28T10:08:01;5.90;99.90
11122;DHT22;5615;49.304;10.576;2024-02-28T10:10:28;5.60;99.90
11122;DHT22;5615;49.304;10.576;2024-02-28T10:12:55;5.80;99.90
11122;DHT22;5615;49.304;10.576;2024-02-28T10:15:22;5.80;99.90
11122;DHT22;5615;49.304;10.576;2024-02-28T10:17:49;5.80;99.90
11122;DHT22;5615;49.304;10.576;2024-02-28T10:20:15;5.90;99.90
11122;DHT22;5615;49.304;10.576;2024-02-28T10:22:43;6.00;99.90
11122;DHT22;5615;49.304;10.576;2024-02-28T10:25:11;6.10;99.90
11122;DHT22;5615;49.304;10.576;2024-02-28T10:27:38;6.30;99.90
11122;DHT22;5615;49.304;10.576;2024-02-28T10:30:06;6.40;99.90
11122;DHT22;5615;49.304;10.576;2024-02-28T10:32:33;6.50;99.90
11122;DHT22;5615;49.304;10.576;2024-02-28T10:35:01;6.50;99.90
11122;DHT22;5615;49.304;10.576;2024-02-28T10:37:29;6.60;99.90
11122;DHT22;5615;49.304;10.576;2024-02-28T10:39:57;6.80;99.90
11122;DHT22;5615;49.304;10.576;2024-02-28T10:42:28;6.90;99.90
11122;DHT22;5615;49.304;10.576;2024-02-28T10:44:57;6.80;99.90
11122;DHT22;5615;49.304;10.576;2024-02-28T10:47:24;6.30;99.90
11122;DHT22;5615;49.304;10.576;2024-02-28T10:49:51;6.40;99.90
11122;DHT22;5615;49.304;10.576;2024-02-28T10:52:21;6.60;99.90
11122;DHT22;5615;49.304;10.576;2024-02-28T10:54:53;6.50;99.90
11122;DHT22;5615;49.304;10.576;2024-02-28T10:57:22;6.70;99.90
11122;DHT22;5615;49.304;10.576;2024-02-28T10:59:52;6.70;99.90
11122;DHT22;5615;49.304;10.576;2024-02-28T11:02:19;6.70;99.90
11122;DHT22;5615;49.304;10.576;2024-02-28T11:04:46;6.50;99.90
11122;DHT22;5615;49.304;10.576;2024-02-28T11:07:19;6.50;99.90
11122;DHT22;5615;49.304;10.576;2024-02-28T11:09:46;6.60;99.90
11122;DHT22;5615;49.304;10.576;2024-02-28T11:12:25;6.60;99.90
11122;DHT22;5615;49.304;10.576;2024-02-28T11:14:57;6.60;99.90
11122;DHT22;5615;49.304;10.576;2024-02-28T11:17:26;6.40;99.90
11122;DHT22;5615;49.304;10.576;2024-02-28T11:19:53;6.40;99.90
11122;DHT22;5615;49.304;10.576;2024-02-28T11:22:20;6.50;99.90
11122;DHT22;5615;49.304;10.576;2024-02-28T11:24:47;6.80;99.90
11122;DHT22;5615;49.304;10.576;2024-02-28T11:27:14;6.70;99.90
11122;DHT22;5615;49.304;10.576;2024-02-28T11:29:41;6.70;99.90
11122;DHT22;5615;49.304;10.576;2024-02-28T11:32:09;6.70;99.90
11122;DHT22;5615;49.304;10.576;2024-02-28T11:34:36;6.60;99.90
11122;DHT22;5615;49.304;10.576;2024-02-28T11:37:04;6.70;99.90
11122;DHT22;5615;49.304;10.576;2024-02-28T11:39:31;6.70;99.90
11122;DHT22;5615;49.304;10.576;2024-02-28T11:42:09;6.60;99.90
11122;DHT22;5615;49.304;10.576;2024-02-28T11:44:35;6.60;99.90
11122;DHT22;5615;49.304;10.576;2024-02-28T11:47:02;6.50;99.90
11122;DHT22;5615;49.304;10.576;2024-02-28T11:49:32;6.50;99.90
11122;DHT22;5615;49.304;10.576;2024-02-28T11:51:59;6.60;99.90
11122;DHT22;5615;49.304;10.576;2024-02-28T11:54:26;6.40;99.90
11122;DHT22;5615;49.304;10.576;2024-02-28T11:56:52;6.30;99.90
11122;DHT22;5615;49.304;10.576;2024-02-28T11:59:19;6.40;99.90
11122;DHT22;5615;49.304;10.576;2024-02-28T12:01:46;6.40;99.90
11122;DHT22;5615;49.304;10.576;2024-02-28T12:04:13;6.30;99.90
11122;DHT22;5615;49.304;10.576;2024-02-28T12:06:41;6.20;99.90
11122;DHT22;5615;49.304;10.576;2024-02-28T12:09:09;6.20;99.90
11122;DHT22;5615;49.304;10.576;2024-02-28T12:11:36;6.40;99.90
11122;DHT22;5615;49.304;10.576;2024-02-28T12:14:03;6.40;99.90
11122;DHT22;5615;49.304;10.576;2024-02-28T12:16:32;6.50;99.90
11122;DHT22;5615;49.304;10.576;2024-02-28T12:18:59;6.30;99.90
11122;DHT22;5615;49.304;10.576;2024-02-28T12:21:25;6.30;99.90
11122;DHT22;5615;49.304;10.576;2024-02-28T12:23:56;6.20;99.90
11122;DHT22;5615;49.304;10.576;2024-02-28T12:26:23;6.10;99.90
11122;DHT22;5615;49.304;10.576;2024-02-28T12:28:49;6.10;99.90
11122;DHT22;5615;49.304;10.576;2024-02-28T12:31:16;6.20;99.90
11122;DHT22;5615;49.304;10.576;2024-02-28T12:33:44;6.20;99.90
11122;DHT22;5615;49.304;10.576;2024-02-28T12:36:10;6.30;99.90
11122;DHT22;5615;49.304;10.576;2024-02-28T12:38:37;6.10;99.90
11122;DHT22;5615;49.304;10.576;2024-02-28T12:41:07;6.10;99.90
11122;DHT22;5615;49.304;10.576;2024-02-28T12:43:34;6.20;99.90
11122;DHT22;5615;49.304;10.576;2024-02-28T12:46:01;6.10;99.90
11122;DHT22;5615;49.304;10.576;2024-02-28T12:48:28;6.30;99.90
11122;DHT22;5615;49.304;10.576;2024-02-28T12:50:55;6.20;99.90
11122;DHT22;5615;49.304;10.576;2024-02-28T12:53:21;6.40;99.90
11122;DHT22;5615;49.304;10.576;2024-02-28T12:55:48;6.50;99.90
11122;DHT22;5615;49.304;10.576;2024-02-28T12:58:16;6.60;99.90
11122;DHT22;5615;49.304;10.576;2024-02-28T13:00:43;6.80;99.90
11122;DHT22;5615;49.304;10.576;2024-02-28T13:03:09;6.90;99.90
11122;DHT22;5615;49.304;10.576;2024-02-28T13:05:36;7.00;99.90
11122;DHT22;5615;49.304;10.576;2024-02-28T13:08:03;6.90;99.90
11122;DHT22;5615;49.304;10.576;2024-02-28T13:10:30;6.70;99.90
11122;DHT22;5615;49.304;10.576;2024-02-28T13:12:59;6.70;99.90
11122;DHT22;5615;49.304;10.576;2024-02-28T13:15:28;6.80;99.90
11122;DHT22;5615;49.304;10.576;2024-02-28T13:17:54;6.70;99.90
11122;DHT22;5615;49.304;10.576;2024-02-28T13:20:21;6.80;99.90
11122;DHT22;5615;49.304;10.576;2024-02-28T13:22:48;6.70;99.90
11122;DHT22;5615;49.304;10.576;2024-02-28T13:25:15;6.70;99.90
11122;DHT22;5615;49.304;10.576;2024-02-28T13:27:43;6.80;99.90
11122;DHT22;5615;49.304;10.576;2024-02-28T13:30:10;6.90;99.90
11122;DHT22;5615;49.304;10.576;2024-02-28T13:32:39;6.90;99.90
11122;DHT22;5615;49.304;10.576;2024-02-28T13:35:07;6.80;99.90
11122;DHT22;5615;49.304;10.576;2024-02-28T13:37:34;6.90;99.90
11122;DHT22;5615;49.304;10.576;2024-02-28T13:40:01;7.00;99.90
11122;DHT22;5615;49.304;10.576;2024-02-28T13:42:30;7.10;99.90
11122;DHT22;5615;49.304;10.576;2024-02-28T13:44:57;7.20;99.90
11122;DHT22;5615;49.304;10.576;2024-02-28T13:47:23;7.30;99.90
11122;DHT22;5615;49.304;10.576;2024-02-28T13:49:51;7.10;99.90
11122;DHT22;5615;49.304;10.576;2024-02-28T13:52:18;7.20;99.90
11122;DHT22;5615;49.304;10.576;2024-02-28T13:54:45;7.20;99.90
11122;DHT22;5615;49.304;10.576;2024-02-28T13:57:12;7.40;99.90
11122;DHT22;5615;49.304;10.576;2024-02-28T13:59:39;7.40;99.90
11122;DHT22;5615;49.304;10.576;2024-02-28T14:02:07;7.50;99.90
11122;DHT22;5615;49.304;10.576;2024-02-28T14:04:34;7.50;99.90
11122;DHT22;5615;49.304;10.576;2024-02-28T14:07:02;7.40;99.90
11122;DHT22;5615;49.304;10.576;2024-02-28T14:09:29;7.30;99.90
11122;DHT22;5615;49.304;10.576;2024-02-28T14:11:56;7.40;99.90
11122;DHT22;5615;49.304;10.576;2024-02-28T14:14:22;7.40;99.90
11122;DHT22;5615;49.304;10.576;2024-02-28T14:16:49;7.60;99.90
11122;DHT22;5615;49.304;10.576;2024-02-28T14:19:16;7.70;99.90
11122;DHT22;5615;49.304;10.576;2024-02-28T14:21:42;7.80;99.90
11122;DHT22;5615;49.304;10.576;2024-02-28T14:24:10;7.90;99.90
11122;DHT22;5615;49.304;10.576;2024-02-28T14:26:37;8.00;99.90
11122;DHT22;5615;49.304;10.576;2024-02-28T14:29:04;8.20;99.90
11122;DHT22;5615;49.304;10.576;2024-02-28T14:31:31;8.40;99.90
11122;DHT22;5615;49.304;10.576;2024-02-28T14:33:58;8.30;99.90
11122;DHT22;5615;49.304;10.576;2024-02-28T14:36:25;8.40;99.90
11122;DHT22;5615;49.304;10.576;2024-02-28T14:38:51;8.50;99.90
11122;DHT22;5615;49.304;10.576;2024-02-28T14:41:19;8.80;99.90
11122;DHT22;5615;49.304;10.576;2024-02-28T14:43:47;9.10;99.90
11122;DHT22;5615;49.304;10.576;2024-02-28T14:46:14;9.60;99.90
11122;DHT22;5615;49.304;10.576;2024-02-28T14:48:43;13.40;99.90
11122;DHT22;5615;49.304;10.576;2024-02-28T14:51:16;12.70;99.90
11122;DHT22;5615;49.304;10.576;2024-02-28T14:53:44;13.80;99.90
11122;DHT22;5615;49.304;10.576;2024-02-28T14:56:12;12.90;99.90
11122;DHT22;5615;49.304;10.576;2024-02-28T14:58:40;12.20;99.90
11122;DHT22;5615;49.304;10.576;2024-02-28T15:01:07;11.80;99.90
11122;DHT22;5615;49.304;10.576;2024-02-28T15:03:35;11.30;99.90
11122;DHT22;5615;49.304;10.576;2024-02-28T15:06:02;10.70;99.90
11122;DHT22;5615;49.304;10.576;2024-02-28T15:08:29;10.30;99.90
11122;DHT22;5615;49.304;10.576;2024-02-28T15:10:56;9.80;99.90
11122;DHT22;5615;49.304;10.576;2024-02-28T15:13:22;9.70;99.90
11122;DHT22;5615;49.304;10.576;2024-02-28T15:15:51;9.70;99.90
11122;DHT22;5615;49.304;10.576;2024-02-28T15:18:18;9.90;99.90
11122;DHT22;5615;49.304;10.576;2024-02-28T15:20:45;10.10;99.90
11122;DHT22;5615;49.304;10.576;2024-02-28T15:23:11;10.10;99.90
11122;DHT22;5615;49.304;10.576;2024-02-28T15:25:38;9.60;99.90
11122;DHT22;5615;49.304;10.576;2024-02-28T15:28:05;9.90;99.90
11122;DHT22;5615;49.304;10.576;2024-02-28T15:30:32;10.20;99.90
11122;DHT22;5615;49.304;10.576;2024-02-28T15:32:59;11.70;99.90
11122;DHT22;5615;49.304;10.576;2024-02-28T15:35:25;12.90;99.90
11122;DHT22;5615;49.304;10.576;2024-02-28T15:37:52;13.90;99.90
11122;DHT22;5615;49.304;10.576;2024-02-28T15:40:18;15.10;99.90
11122;DHT22;5615;49.304;10.576;2024-02-28T15:42:47;16.30;99.10
11122;DHT22;5615;49.304;10.576;2024-02-28T15:45:14;15.00;98.50